General Aviation Weather

Text Reports

Enter one or more of the following location identifiers separated by a space:

Zip Code, Four-Character ICAO or Three-Character IATA airport codes.

METAR - Aviation Routine Weather Report
PABA - Barter Island, Alaska
Updated at 8:56 PM GMT on August 24, 2016 (12:56 PM AKDT):
METAR PABA 242056Z 09015KT 1/2SM FG OVC002 07/06 A3013 RMK AO2 SLP199 T00670061 58002
TAF - Terminal Area Forecast
PABA - Barter Island, Alaska
Updated at 8:56 PM GMT on August 24, 2016 (12:56 PM AKDT):
No TAF is currently available for this location.
Decoded:
No decoded TAF is available.
PIREP - Pilot Weather Report
PABA - Barter Island, Alaska
Updated at 8:56 PM GMT on August 24, 2016 (12:56 PM AKDT):
No PIREP is currently available for this location.
AIRMET - Airmens Meteorological Information
PABA - Barter Island, Alaska
Updated at 8:56 PM GMT on August 24, 2016 (12:56 PM AKDT):
No AIRMET is currently available for this location.
SIGMET - Significant Meteorological Information
PABA - Barter Island, Alaska
Updated at 8:56 PM GMT on August 24, 2016 (12:56 PM AKDT):
No SIGMET is currently available for this location.
NOTAM - Notice to Airmen
PABA - Barter Island, Alaska
Updated at 8:56 PM GMT on August 24, 2016 (12:56 PM AKDT):
No NOTAM is currently available for this location.
Forecast Area
PABA - Barter Island, Alaska
Updated at 8:56 PM GMT on August 24, 2016 (12:56 PM AKDT):
No NOTAM is currently available for this location.
Aviation Weather Maps